createdAt,value
2017-11-14T00:00:16.021Z,0
2017-11-14T00:00:56.539Z,0
2017-11-14T00:01:37.054Z,0
2017-11-14T00:02:17.580Z,0
2017-11-14T00:02:58.094Z,0
2017-11-14T00:03:38.641Z,0
2017-11-14T00:04:19.190Z,0
2017-11-14T00:04:59.706Z,0
2017-11-14T00:05:40.242Z,0
2017-11-14T00:06:20.784Z,0
2017-11-14T00:07:01.304Z,0
2017-11-14T00:07:41.821Z,0
2017-11-14T00:08:22.346Z,0
2017-11-14T00:09:02.874Z,0
2017-11-14T00:09:43.397Z,0
2017-11-14T00:10:23.910Z,0
2017-11-14T00:11:04.444Z,0
2017-11-14T00:11:44.960Z,0
2017-11-14T00:12:25.475Z,0
2017-11-14T00:13:06.007Z,0
2017-11-14T00:13:46.563Z,0
2017-11-14T00:14:27.070Z,0
2017-11-14T00:15:07.592Z,0
2017-11-14T00:15:48.124Z,0
2017-11-14T00:16:28.659Z,0
2017-11-14T00:17:09.185Z,0
2017-11-14T00:17:49.697Z,0
2017-11-14T00:18:30.226Z,0
2017-11-14T00:19:10.744Z,0
2017-11-14T00:19:51.253Z,0
2017-11-14T00:20:31.782Z,0
2017-11-14T00:21:12.294Z,0
2017-11-14T00:21:52.834Z,0
2017-11-14T00:22:33.362Z,0
2017-11-14T00:23:13.888Z,0
2017-11-14T00:23:54.415Z,0
2017-11-14T00:24:34.947Z,0
2017-11-14T00:25:15.468Z,0
2017-11-14T00:25:55.996Z,0
2017-11-14T00:26:36.526Z,0
2017-11-14T00:27:17.042Z,0
2017-11-14T00:27:57.559Z,0
2017-11-14T00:28:38.086Z,0
2017-11-14T00:29:18.616Z,0
2017-11-14T00:29:59.149Z,0
2017-11-14T00:30:39.666Z,0
2017-11-14T00:31:20.188Z,0
2017-11-14T00:32:00.725Z,0
2017-11-14T00:32:41.249Z,0
2017-11-14T00:33:21.774Z,0
2017-11-14T00:34:02.288Z,0
2017-11-14T00:34:42.816Z,0
2017-11-14T00:35:23.343Z,0
2017-11-14T00:36:03.863Z,0
2017-11-14T00:36:44.398Z,0
2017-11-14T00:37:24.934Z,0
2017-11-14T00:38:05.448Z,0
2017-11-14T00:38:45.951Z,0
2017-11-14T00:39:26.479Z,0
2017-11-14T00:40:07.004Z,0
2017-11-14T00:40:47.527Z,0
2017-11-14T00:41:28.053Z,0
2017-11-14T00:42:08.573Z,0
2017-11-14T00:42:49.132Z,0
2017-11-14T00:43:29.621Z,0
2017-11-14T00:44:10.157Z,0
2017-11-14T00:44:50.684Z,0
2017-11-14T00:45:31.200Z,0
2017-11-14T00:46:11.714Z,0
2017-11-14T00:46:52.230Z,0
2017-11-14T00:47:32.768Z,0
2017-11-14T00:48:13.297Z,0
2017-11-14T00:48:53.830Z,0
2017-11-14T00:49:34.349Z,0
2017-11-14T00:50:14.878Z,0
2017-11-14T00:50:55.401Z,0
2017-11-14T00:51:35.911Z,0
2017-11-14T00:52:16.424Z,0
2017-11-14T00:52:56.951Z,0
2017-11-14T00:53:37.481Z,0
2017-11-14T00:54:17.981Z,0
2017-11-14T00:54:58.514Z,0
2017-11-14T00:55:39.018Z,0
2017-11-14T00:56:19.538Z,0
2017-11-14T00:57:00.053Z,0
2017-11-14T00:57:40.572Z,0
2017-11-14T00:58:21.099Z,0
2017-11-14T00:59:01.625Z,0
2017-11-14T00:59:42.158Z,0
2017-11-14T01:00:22.686Z,0
2017-11-14T01:01:03.194Z,0
2017-11-14T01:01:43.707Z,0
2017-11-14T01:02:24.204Z,0
2017-11-14T01:03:04.722Z,0
2017-11-14T01:03:45.232Z,0
2017-11-14T01:04:25.754Z,0
2017-11-14T01:05:06.284Z,0
2017-11-14T01:05:46.818Z,0
2017-11-14T01:06:27.334Z,0
2017-11-14T01:07:07.859Z,0
2017-11-14T01:07:48.386Z,0
2017-11-14T01:08:28.914Z,0
2017-11-14T01:09:09.438Z,0
2017-11-14T01:09:49.948Z,0
2017-11-14T01:10:30.458Z,0
2017-11-14T01:11:10.974Z,0
2017-11-14T01:11:51.506Z,0
2017-11-14T01:12:32.016Z,0
2017-11-14T01:13:12.534Z,0
2017-11-14T01:13:53.083Z,0
2017-11-14T01:14:33.581Z,0
2017-11-14T01:15:14.106Z,0
2017-11-14T01:15:54.629Z,0
2017-11-14T01:16:35.163Z,0
2017-11-14T01:17:15.677Z,0
2017-11-14T01:17:56.209Z,0
2017-11-14T01:18:36.728Z,0
2017-11-14T01:19:17.255Z,0
2017-11-14T01:19:57.780Z,0
2017-11-14T01:20:38.306Z,0
2017-11-14T01:21:18.837Z,0
2017-11-14T01:21:59.360Z,0
2017-11-14T01:22:39.883Z,0
2017-11-14T01:23:20.416Z,0
2017-11-14T01:24:00.938Z,0
2017-11-14T01:24:41.456Z,0
2017-11-14T01:25:21.985Z,0
2017-11-14T01:26:02.516Z,0
2017-11-14T01:26:43.046Z,0
2017-11-14T01:27:23.572Z,0
2017-11-14T01:28:04.119Z,0
2017-11-14T01:28:44.636Z,0
2017-11-14T01:29:25.162Z,0
2017-11-14T01:30:05.681Z,0
2017-11-14T01:30:46.196Z,0
2017-11-14T01:31:26.731Z,0
2017-11-14T01:32:07.257Z,0
2017-11-14T01:32:47.767Z,0
2017-11-14T01:33:28.294Z,0
2017-11-14T01:34:08.812Z,0
2017-11-14T01:34:49.329Z,0
2017-11-14T01:35:29.854Z,0
2017-11-14T01:36:10.378Z,0
2017-11-14T01:36:50.894Z,0
2017-11-14T01:37:31.421Z,0
2017-11-14T01:38:11.950Z,0
2017-11-14T01:38:52.472Z,0
2017-11-14T01:39:33.000Z,0
2017-11-14T01:40:13.530Z,0
2017-11-14T01:40:54.053Z,0
2017-11-14T01:41:34.587Z,0
2017-11-14T01:42:15.106Z,0
2017-11-14T01:42:55.633Z,0
2017-11-14T01:43:36.165Z,0
2017-11-14T01:44:16.681Z,0
2017-11-14T01:44:57.212Z,0
2017-11-14T01:45:37.740Z,0
2017-11-14T01:46:18.243Z,0
2017-11-14T01:46:58.768Z,0
2017-11-14T01:47:39.281Z,0
2017-11-14T01:48:19.796Z,0
2017-11-14T01:49:00.331Z,0
2017-11-14T01:49:40.837Z,0
2017-11-14T01:50:21.360Z,0
2017-11-14T01:51:01.884Z,0
2017-11-14T01:51:42.408Z,0
2017-11-14T01:52:22.918Z,0
2017-11-14T01:53:03.456Z,0
2017-11-14T01:53:43.992Z,0
2017-11-14T01:54:24.497Z,0
2017-11-14T01:55:05.023Z,0
2017-11-14T01:55:45.551Z,0
2017-11-14T01:56:26.085Z,0
2017-11-14T01:57:06.610Z,0
2017-11-14T01:57:47.175Z,0
2017-11-14T01:58:27.639Z,0
2017-11-14T01:59:08.183Z,0
2017-11-14T01:59:48.689Z,0
2017-11-14T02:00:29.221Z,0
2017-11-14T02:01:09.749Z,0
2017-11-14T02:01:50.293Z,0
2017-11-14T02:02:30.818Z,0
2017-11-14T02:03:11.330Z,0
2017-11-14T02:03:51.849Z,0
2017-11-14T02:04:32.361Z,0
2017-11-14T02:05:12.879Z,0
2017-11-14T02:05:53.406Z,0
2017-11-14T02:06:33.948Z,0
2017-11-14T02:07:14.478Z,0
2017-11-14T02:07:54.998Z,0
2017-11-14T02:08:35.500Z,0
2017-11-14T02:09:16.031Z,0
2017-11-14T02:09:56.557Z,0
2017-11-14T02:10:37.072Z,0
2017-11-14T02:11:17.609Z,0
2017-11-14T02:11:58.133Z,0
2017-11-14T02:12:38.657Z,0
2017-11-14T02:13:19.182Z,0
2017-11-14T02:13:59.712Z,0
2017-11-14T02:14:40.230Z,0
2017-11-14T02:15:20.743Z,0
2017-11-14T02:16:01.279Z,0
2017-11-14T02:16:41.808Z,0
2017-11-14T02:17:22.320Z,0
2017-11-14T02:18:02.852Z,0
2017-11-14T02:18:43.353Z,0
2017-11-14T02:19:23.887Z,0
2017-11-14T02:20:04.385Z,0
2017-11-14T02:20:44.890Z,0
2017-11-14T02:21:25.418Z,0
2017-11-14T02:22:05.928Z,0
2017-11-14T02:22:46.460Z,0
2017-11-14T02:23:26.973Z,0
2017-11-14T02:24:07.488Z,0
2017-11-14T02:24:48.009Z,0
2017-11-14T02:25:28.550Z,0
2017-11-14T02:26:09.069Z,0
2017-11-14T02:26:49.574Z,0
2017-11-14T02:27:30.130Z,0
2017-11-14T02:28:10.646Z,0
2017-11-14T02:28:51.183Z,0
2017-11-14T02:29:31.699Z,0
2017-11-14T02:30:12.221Z,0
2017-11-14T02:30:52.751Z,0
2017-11-14T02:31:33.264Z,0
2017-11-14T02:32:13.764Z,0
2017-11-14T02:32:54.306Z,0
2017-11-14T02:33:34.824Z,0
2017-11-14T02:34:15.352Z,0
2017-11-14T02:34:55.874Z,0
2017-11-14T02:35:36.410Z,0
2017-11-14T02:36:16.919Z,0
2017-11-14T02:36:57.437Z,0
2017-11-14T02:37:37.983Z,0
2017-11-14T02:38:18.514Z,0
2017-11-14T02:38:59.042Z,0
2017-11-14T02:39:39.550Z,0
2017-11-14T02:40:20.080Z,0
2017-11-14T02:41:00.580Z,0
2017-11-14T02:41:41.116Z,0
2017-11-14T02:42:21.623Z,0
2017-11-14T02:43:02.158Z,0
2017-11-14T02:43:42.692Z,0
2017-11-14T02:44:23.212Z,0
2017-11-14T02:45:03.724Z,0
2017-11-14T02:45:44.241Z,0
2017-11-14T02:46:24.754Z,0
2017-11-14T02:47:05.267Z,0
2017-11-14T02:47:45.802Z,0
2017-11-14T02:48:26.343Z,0
2017-11-14T02:49:06.868Z,0
2017-11-14T02:49:47.398Z,0
2017-11-14T02:50:27.918Z,0
2017-11-14T02:51:08.485Z,0
2017-11-14T02:51:48.996Z,0
2017-11-14T02:52:29.504Z,0
2017-11-14T02:53:10.040Z,0
2017-11-14T02:53:50.569Z,0
2017-11-14T02:54:31.099Z,0
2017-11-14T02:55:11.639Z,0
2017-11-14T02:55:52.163Z,0
2017-11-14T02:56:32.692Z,0
2017-11-14T02:57:13.208Z,0
2017-11-14T02:57:53.738Z,0
2017-11-14T02:58:34.253Z,0
2017-11-14T02:59:14.798Z,0
2017-11-14T02:59:55.312Z,0
2017-11-14T03:00:35.802Z,0
2017-11-14T03:01:16.323Z,0
2017-11-14T03:01:56.847Z,0
2017-11-14T03:02:37.352Z,0
2017-11-14T03:03:17.874Z,0
2017-11-14T03:03:58.400Z,0
2017-11-14T03:04:38.927Z,0
2017-11-14T03:05:19.442Z,0
2017-11-14T03:05:59.981Z,0
2017-11-14T03:06:40.510Z,0
2017-11-14T03:07:21.049Z,0
2017-11-14T03:08:01.555Z,0
2017-11-14T03:08:42.077Z,0
2017-11-14T03:09:22.605Z,0
2017-11-14T03:10:03.116Z,0
2017-11-14T03:10:43.624Z,0
2017-11-14T03:11:24.152Z,0
2017-11-14T03:12:04.663Z,0
2017-11-14T03:12:45.196Z,0
2017-11-14T03:13:25.713Z,0
2017-11-14T03:14:06.252Z,0
2017-11-14T03:14:46.768Z,0
2017-11-14T03:15:27.273Z,0
2017-11-14T03:16:07.782Z,0
2017-11-14T03:16:48.282Z,0
2017-11-14T03:17:28.801Z,0
2017-11-14T03:18:09.315Z,0
2017-11-14T03:18:49.844Z,0
2017-11-14T03:19:30.367Z,0
2017-11-14T03:20:10.907Z,0
2017-11-14T03:20:51.408Z,0
2017-11-14T03:21:31.933Z,0
2017-11-14T03:22:12.455Z,0
2017-11-14T03:22:52.983Z,0
2017-11-14T03:23:33.481Z,0
2017-11-14T03:24:13.995Z,0
2017-11-14T03:24:54.510Z,0
2017-11-14T03:25:35.036Z,0
2017-11-14T03:26:15.562Z,0
2017-11-14T03:26:56.085Z,0
2017-11-14T03:27:36.603Z,0
2017-11-14T03:28:17.124Z,0
2017-11-14T03:28:57.669Z,0
2017-11-14T03:29:38.181Z,0
2017-11-14T03:30:18.713Z,0
2017-11-14T03:30:59.233Z,0
2017-11-14T03:31:39.761Z,0
2017-11-14T03:32:20.273Z,0
2017-11-14T03:33:00.784Z,0
2017-11-14T03:33:41.307Z,0
2017-11-14T03:34:21.834Z,0
2017-11-14T03:35:02.338Z,0
2017-11-14T03:35:42.890Z,0
2017-11-14T03:36:23.409Z,0
2017-11-14T03:37:03.940Z,0
2017-11-14T03:37:44.462Z,0
2017-11-14T03:38:24.985Z,0
2017-11-14T03:39:05.495Z,0
2017-11-14T03:39:46.026Z,0
2017-11-14T03:40:26.541Z,0
2017-11-14T03:41:07.030Z,0
2017-11-14T03:41:47.541Z,0
2017-11-14T03:42:28.067Z,0
2017-11-14T03:43:08.602Z,0
2017-11-14T03:43:49.110Z,0
2017-11-14T03:44:29.634Z,0
2017-11-14T03:45:10.157Z,0
2017-11-14T03:45:50.679Z,0
2017-11-14T03:46:31.202Z,0
2017-11-14T03:47:11.737Z,0
2017-11-14T03:47:52.260Z,0
2017-11-14T03:48:32.775Z,0
2017-11-14T03:49:13.298Z,0
2017-11-14T03:49:53.827Z,0
2017-11-14T03:50:34.326Z,0
2017-11-14T03:51:14.838Z,0
2017-11-14T03:51:55.361Z,0
2017-11-14T03:52:35.890Z,0
2017-11-14T03:53:16.416Z,0
2017-11-14T03:53:56.935Z,0
2017-11-14T03:54:37.468Z,0
2017-11-14T03:55:17.996Z,0
2017-11-14T03:55:58.488Z,0
2017-11-14T03:56:39.014Z,0
2017-11-14T03:57:19.530Z,0
2017-11-14T03:58:00.036Z,0
2017-11-14T03:58:40.547Z,0
2017-11-14T03:59:21.072Z,0
2017-11-14T04:00:01.597Z,0
2017-11-14T04:00:42.130Z,0
2017-11-14T04:01:22.673Z,0
2017-11-14T04:02:03.216Z,0
2017-11-14T04:02:43.740Z,0
2017-11-14T04:03:24.240Z,0
2017-11-14T04:04:04.770Z,0
2017-11-14T04:04:45.274Z,0
2017-11-14T04:05:25.788Z,0
2017-11-14T04:06:06.314Z,0
2017-11-14T04:06:46.835Z,0
2017-11-14T04:07:27.362Z,0
2017-11-14T04:08:07.880Z,0
2017-11-14T04:08:48.407Z,0
2017-11-14T04:11:18.947Z,0
2017-11-14T04:11:59.465Z,0
2017-11-14T04:12:39.982Z,0
2017-11-14T04:13:20.549Z,0
2017-11-14T04:14:01.109Z,0
2017-11-14T04:14:41.615Z,0
2017-11-14T04:15:22.127Z,0
2017-11-14T04:16:02.634Z,0
2017-11-14T04:16:43.164Z,0
2017-11-14T04:17:23.668Z,0
2017-11-14T04:18:04.197Z,0
2017-11-14T04:18:44.721Z,0
2017-11-14T04:19:25.259Z,0
2017-11-14T04:20:05.755Z,0
2017-11-14T04:20:46.280Z,0
2017-11-14T04:21:26.800Z,0
2017-11-14T04:22:07.310Z,0
2017-11-14T04:22:47.830Z,0
2017-11-14T04:23:28.341Z,0
2017-11-14T04:24:08.852Z,0
2017-11-14T04:24:49.369Z,0
2017-11-14T04:25:29.905Z,0
2017-11-14T04:26:10.409Z,0
2017-11-14T04:26:50.924Z,0
2017-11-14T04:27:31.450Z,0
2017-11-14T04:28:11.949Z,0
2017-11-14T04:28:52.460Z,0
2017-11-14T04:29:32.965Z,0
2017-11-14T04:30:13.479Z,0
2017-11-14T04:30:53.999Z,0
2017-11-14T04:31:34.513Z,0
2017-11-14T04:32:15.028Z,0
2017-11-14T04:32:55.552Z,0
2017-11-14T04:33:36.079Z,0
2017-11-14T04:34:16.590Z,0
2017-11-14T04:34:57.109Z,0
2017-11-14T04:35:37.628Z,0
2017-11-14T04:36:18.151Z,0
2017-11-14T04:36:58.659Z,0
2017-11-14T04:37:39.158Z,0
2017-11-14T04:38:19.683Z,0
2017-11-14T04:39:00.211Z,0
2017-11-14T04:39:40.722Z,0
2017-11-14T04:40:21.248Z,0
2017-11-14T04:41:01.768Z,0
2017-11-14T04:41:42.284Z,0
2017-11-14T04:42:22.811Z,0
2017-11-14T04:43:03.319Z,0
2017-11-14T04:43:43.859Z,0
2017-11-14T04:44:25.295Z,0
2017-11-14T04:45:05.815Z,0
2017-11-14T04:45:46.347Z,0
2017-11-14T04:46:26.876Z,0
2017-11-14T04:47:07.393Z,0
2017-11-14T04:47:47.887Z,0
2017-11-14T04:48:28.392Z,0
2017-11-14T04:49:08.904Z,0
2017-11-14T04:49:49.421Z,0
2017-11-14T04:50:29.995Z,0
2017-11-14T04:51:10.454Z,0
2017-11-14T04:51:50.978Z,0
2017-11-14T04:52:31.506Z,0
2017-11-14T04:53:12.007Z,0
2017-11-14T04:53:52.537Z,0
2017-11-14T04:54:33.054Z,0
2017-11-14T04:55:13.560Z,0
2017-11-14T04:55:54.079Z,0
2017-11-14T04:56:34.603Z,0
2017-11-14T04:57:15.122Z,0
2017-11-14T04:57:55.643Z,0
2017-11-14T04:58:36.249Z,0
2017-11-14T04:59:17.192Z,0
2017-11-14T04:59:57.761Z,0
2017-11-14T05:00:38.279Z,0
2017-11-14T05:01:18.787Z,0
2017-11-14T05:01:59.295Z,0
2017-11-14T05:02:39.818Z,0
2017-11-14T05:03:20.359Z,0
2017-11-14T05:04:00.874Z,0
2017-11-14T05:04:41.369Z,0
2017-11-14T05:05:21.880Z,0
2017-11-14T05:06:02.397Z,0
2017-11-14T05:06:42.925Z,0
2017-11-14T05:07:23.441Z,0
2017-11-14T05:08:03.959Z,0
2017-11-14T05:08:44.470Z,0
2017-11-14T05:09:24.992Z,0
2017-11-14T05:10:05.500Z,0
2017-11-14T05:10:46.013Z,0
2017-11-14T05:11:26.520Z,0
2017-11-14T05:12:07.030Z,0
2017-11-14T05:12:47.562Z,0
2017-11-14T05:13:28.076Z,0
2017-11-14T05:14:08.598Z,0
2017-11-14T05:14:49.125Z,0
2017-11-14T05:15:29.650Z,0
2017-11-14T05:16:10.140Z,0
2017-11-14T05:16:50.666Z,0
2017-11-14T05:17:31.172Z,0
2017-11-14T05:18:11.700Z,0
2017-11-14T05:18:52.241Z,0
2017-11-14T05:19:32.760Z,0
2017-11-14T05:20:13.294Z,0
2017-11-14T05:20:53.817Z,0
2017-11-14T05:21:34.348Z,0
2017-11-14T05:22:14.853Z,0
2017-11-14T05:22:55.386Z,0
2017-11-14T05:23:35.904Z,0
2017-11-14T05:24:16.445Z,0
2017-11-14T05:24:56.965Z,0
2017-11-14T05:25:37.480Z,0
2017-11-14T05:26:17.975Z,0
2017-11-14T05:26:58.516Z,0
2017-11-14T05:27:39.030Z,0
2017-11-14T05:28:19.537Z,0
2017-11-14T05:29:00.065Z,0
2017-11-14T05:29:40.569Z,0
2017-11-14T05:30:21.094Z,0
2017-11-14T05:31:01.631Z,0
2017-11-14T05:31:42.134Z,0
2017-11-14T05:32:22.661Z,0
2017-11-14T05:33:03.185Z,0
2017-11-14T05:33:43.711Z,0
2017-11-14T05:34:24.240Z,0
2017-11-14T05:35:04.769Z,0
2017-11-14T05:35:45.282Z,0
2017-11-14T05:36:25.816Z,0
2017-11-14T05:37:06.334Z,0
2017-11-14T05:37:46.856Z,0
2017-11-14T05:38:27.381Z,0
2017-11-14T05:39:07.908Z,0
2017-11-14T05:39:48.430Z,0
2017-11-14T05:40:28.948Z,0
2017-11-14T05:41:09.544Z,0
2017-11-14T05:41:50.071Z,0
2017-11-14T05:42:30.596Z,0
2017-11-14T05:43:11.126Z,0
2017-11-14T05:43:51.654Z,0
2017-11-14T05:44:32.168Z,0
2017-11-14T05:45:12.692Z,0
2017-11-14T05:45:53.209Z,0
2017-11-14T05:46:33.749Z,0
2017-11-14T05:47:14.261Z,0
2017-11-14T05:47:54.786Z,0
2017-11-14T05:48:35.313Z,0
2017-11-14T05:49:15.835Z,0
2017-11-14T05:49:56.371Z,0
2017-11-14T05:50:36.884Z,0
2017-11-14T05:51:17.425Z,0
2017-11-14T05:51:57.949Z,0
2017-11-14T05:52:38.492Z,0
2017-11-14T05:53:19.008Z,0
2017-11-14T05:53:59.542Z,0
2017-11-14T05:54:40.073Z,0
2017-11-14T05:55:20.604Z,0
2017-11-14T05:56:01.123Z,0
2017-11-14T05:56:41.644Z,0
2017-11-14T05:57:22.180Z,0
2017-11-14T05:58:02.693Z,0
2017-11-14T05:58:43.220Z,0
2017-11-14T05:59:23.750Z,0
2017-11-14T06:00:04.290Z,0
2017-11-14T06:00:44.813Z,0
2017-11-14T06:01:25.313Z,0
2017-11-14T06:02:05.832Z,0
2017-11-14T06:02:46.365Z,0
2017-11-14T06:03:26.877Z,0
2017-11-14T06:04:07.406Z,0
2017-11-14T06:04:47.928Z,0
2017-11-14T06:05:28.430Z,0
2017-11-14T06:06:08.956Z,0
2017-11-14T06:06:49.479Z,0
2017-11-14T06:07:29.997Z,0
2017-11-14T06:08:10.565Z,0
2017-11-14T06:08:51.094Z,0
2017-11-14T06:09:31.610Z,0
2017-11-14T06:10:12.130Z,0
2017-11-14T06:10:52.648Z,0
2017-11-14T06:11:33.156Z,0
2017-11-14T06:12:13.671Z,0
2017-11-14T06:12:54.193Z,0
2017-11-14T06:13:34.721Z,0
2017-11-14T06:14:15.230Z,0
2017-11-14T06:14:55.751Z,0
2017-11-14T06:15:36.278Z,0
2017-11-14T06:16:16.807Z,0
2017-11-14T06:16:57.331Z,0
2017-11-14T06:17:37.874Z,0
2017-11-14T06:18:18.396Z,0
2017-11-14T06:18:58.914Z,0
2017-11-14T06:19:39.425Z,0
2017-11-14T06:20:19.952Z,0
2017-11-14T06:21:00.478Z,0
2017-11-14T06:21:41.002Z,0
2017-11-14T06:22:21.521Z,0
2017-11-14T06:23:02.032Z,0
2017-11-14T06:23:42.561Z,0
2017-11-14T06:24:23.089Z,0
2017-11-14T06:25:03.615Z,0
2017-11-14T06:25:44.143Z,0
2017-11-14T06:26:24.675Z,0
2017-11-14T06:27:05.203Z,0
2017-11-14T06:27:45.730Z,0
2017-11-14T06:28:26.264Z,0
2017-11-14T06:29:06.787Z,0
2017-11-14T06:29:47.295Z,0
2017-11-14T06:30:27.830Z,0
2017-11-14T06:31:08.357Z,0
2017-11-14T06:31:48.860Z,0
2017-11-14T06:32:29.389Z,0
2017-11-14T06:33:09.908Z,0
2017-11-14T06:33:50.451Z,0
2017-11-14T06:34:30.984Z,0
2017-11-14T06:35:11.515Z,0
2017-11-14T06:35:52.037Z,0
2017-11-14T06:36:32.562Z,0
2017-11-14T06:37:13.082Z,0
2017-11-14T06:37:53.615Z,0
2017-11-14T06:38:34.142Z,0
2017-11-14T06:39:14.670Z,0
2017-11-14T06:39:55.195Z,0
2017-11-14T06:40:35.719Z,0
2017-11-14T06:41:16.241Z,0
2017-11-14T06:41:56.777Z,0
2017-11-14T06:42:37.288Z,0
2017-11-14T06:43:17.815Z,0
2017-11-14T06:43:58.335Z,0
2017-11-14T06:44:38.836Z,5
2017-11-14T06:45:19.364Z,5
2017-11-14T06:45:59.910Z,5
2017-11-14T06:46:40.433Z,5
2017-11-14T06:47:20.959Z,5
2017-11-14T06:48:01.476Z,5
2017-11-14T06:48:42.021Z,5
2017-11-14T06:49:22.536Z,5
2017-11-14T06:50:03.162Z,5
2017-11-14T06:50:43.684Z,5
2017-11-14T06:51:24.196Z,5
2017-11-14T06:52:04.697Z,5
2017-11-14T06:52:45.227Z,5
2017-11-14T06:53:25.749Z,5
2017-11-14T06:54:06.267Z,5
2017-11-14T06:54:46.796Z,10
2017-11-14T06:55:27.310Z,10
2017-11-14T06:56:07.838Z,10
2017-11-14T06:56:48.365Z,10
2017-11-14T06:57:28.876Z,10
2017-11-14T06:58:09.406Z,10
2017-11-14T06:58:49.940Z,10
2017-11-14T06:59:30.451Z,10
2017-11-14T07:00:10.973Z,10
2017-11-14T07:00:51.502Z,10
2017-11-14T07:01:32.021Z,10
2017-11-14T07:02:12.543Z,10
2017-11-14T07:02:53.071Z,10
2017-11-14T07:03:33.587Z,15
2017-11-14T07:04:14.171Z,15
2017-11-14T07:04:54.685Z,15
2017-11-14T07:05:35.202Z,15
2017-11-14T07:06:15.716Z,15
2017-11-14T07:06:56.252Z,15
2017-11-14T07:07:36.774Z,15
2017-11-14T07:08:17.310Z,15
2017-11-14T07:08:57.822Z,15
2017-11-14T07:09:38.350Z,20
2017-11-14T07:10:18.868Z,20
2017-11-14T07:10:59.407Z,20
2017-11-14T07:11:39.914Z,20
2017-11-14T07:12:20.461Z,20
2017-11-14T07:13:00.993Z,25
2017-11-14T07:13:41.523Z,25
2017-11-14T07:14:22.051Z,30
2017-11-14T07:15:02.583Z,30
2017-11-14T07:15:43.095Z,30
2017-11-14T07:16:23.646Z,30
2017-11-14T07:17:04.173Z,30
2017-11-14T07:17:44.685Z,35
2017-11-14T07:18:25.219Z,35
2017-11-14T07:19:05.724Z,40
2017-11-14T07:19:46.245Z,40
2017-11-14T07:20:26.763Z,40
2017-11-14T07:21:07.316Z,40
2017-11-14T07:21:47.818Z,40
2017-11-14T07:22:28.330Z,40
2017-11-14T07:23:08.862Z,40
2017-11-14T07:23:49.365Z,40
2017-11-14T07:24:29.894Z,40
2017-11-14T07:25:10.435Z,45
2017-11-14T07:25:50.969Z,45
2017-11-14T07:26:31.510Z,45
2017-11-14T07:27:12.032Z,45
2017-11-14T07:27:52.548Z,45
2017-11-14T07:28:33.078Z,45
2017-11-14T07:29:13.612Z,50
2017-11-14T07:29:54.127Z,50
2017-11-14T07:30:34.636Z,55
2017-11-14T07:31:15.166Z,55
2017-11-14T07:31:55.686Z,55
2017-11-14T07:32:36.208Z,60
2017-11-14T07:33:16.740Z,70
2017-11-14T07:33:57.268Z,65
2017-11-14T07:34:37.797Z,65
2017-11-14T07:35:18.322Z,65
2017-11-14T07:35:58.834Z,70
2017-11-14T07:36:39.378Z,60
2017-11-14T07:37:19.884Z,60
2017-11-14T07:38:00.410Z,65
2017-11-14T07:38:40.927Z,70
2017-11-14T07:39:21.464Z,70
2017-11-14T07:40:01.990Z,75
2017-11-14T07:40:42.503Z,70
2017-11-14T07:41:23.025Z,70
2017-11-14T07:42:03.541Z,70
2017-11-14T07:42:44.059Z,75
2017-11-14T07:43:24.579Z,85
2017-11-14T07:44:05.097Z,85
2017-11-14T07:44:45.616Z,80
2017-11-14T07:45:26.142Z,95
2017-11-14T07:46:06.665Z,105
2017-11-14T07:46:47.172Z,110
2017-11-14T07:47:27.683Z,115
2017-11-14T07:48:08.211Z,110
2017-11-14T07:48:48.736Z,115
2017-11-14T07:49:29.258Z,115
2017-11-14T07:50:09.791Z,115
2017-11-14T07:50:50.325Z,120
2017-11-14T07:51:30.848Z,115
2017-11-14T07:52:11.354Z,110
2017-11-14T07:52:51.895Z,125
2017-11-14T07:53:32.421Z,130
2017-11-14T07:54:12.943Z,125
2017-11-14T07:54:53.468Z,130
2017-11-14T07:55:34.007Z,140
2017-11-14T07:56:14.527Z,135
2017-11-14T07:56:55.079Z,150
2017-11-14T07:57:35.604Z,155
2017-11-14T07:58:16.132Z,155
2017-11-14T07:58:56.657Z,155
2017-11-14T07:59:37.184Z,155
2017-11-14T08:00:17.709Z,165
2017-11-14T08:00:58.218Z,150
2017-11-14T08:01:38.750Z,160
2017-11-14T08:02:19.275Z,165
2017-11-14T08:02:59.793Z,165
2017-11-14T08:03:40.307Z,165
2017-11-14T08:04:20.841Z,185
2017-11-14T08:05:01.367Z,180
2017-11-14T08:05:41.888Z,185
2017-11-14T08:06:22.416Z,165
2017-11-14T08:07:02.952Z,160
2017-11-14T08:07:43.481Z,160
2017-11-14T08:08:24.003Z,150
2017-11-14T08:09:04.524Z,150
2017-11-14T08:09:45.051Z,145
2017-11-14T08:10:25.598Z,145
2017-11-14T08:11:06.118Z,150
2017-11-14T08:11:46.631Z,150
2017-11-14T08:12:27.151Z,150
2017-11-14T08:13:07.693Z,150
2017-11-14T08:13:48.224Z,155
2017-11-14T08:14:28.780Z,160
2017-11-14T08:15:09.281Z,160
2017-11-14T08:15:49.811Z,155
2017-11-14T08:16:30.343Z,155
2017-11-14T08:17:10.878Z,155
2017-11-14T08:17:51.399Z,165
2017-11-14T08:18:31.922Z,170
2017-11-14T08:19:12.450Z,175
2017-11-14T08:19:52.984Z,175
2017-11-14T08:20:33.547Z,175
2017-11-14T08:21:14.103Z,175
2017-11-14T08:21:54.649Z,170
2017-11-14T08:22:35.156Z,175
2017-11-14T08:23:15.668Z,175
2017-11-14T08:23:56.208Z,180
2017-11-14T08:24:36.735Z,190
2017-11-14T08:25:17.259Z,185
2017-11-14T08:25:57.821Z,180
2017-11-14T08:26:38.329Z,170
2017-11-14T08:27:18.862Z,170
2017-11-14T08:27:59.402Z,170
2017-11-14T08:28:39.937Z,180
2017-11-14T08:29:20.459Z,175
2017-11-14T08:30:00.968Z,175
2017-11-14T08:30:41.498Z,170
2017-11-14T08:31:22.002Z,175
2017-11-14T08:32:02.526Z,180
2017-11-14T08:32:43.061Z,175
2017-11-14T08:33:23.585Z,170
2017-11-14T08:34:04.130Z,170
2017-11-14T08:34:44.614Z,165
2017-11-14T08:35:25.141Z,165
2017-11-14T08:36:05.654Z,170
2017-11-14T08:36:46.179Z,180
2017-11-14T08:37:26.689Z,185
2017-11-14T08:38:07.212Z,195
2017-11-14T08:38:47.758Z,200
2017-11-14T08:39:28.280Z,210
2017-11-14T08:40:08.801Z,220
2017-11-14T08:40:49.342Z,230
2017-11-14T08:41:29.884Z,235
2017-11-14T08:42:10.403Z,240
2017-11-14T08:42:50.932Z,245
2017-11-14T08:43:31.436Z,250
2017-11-14T08:44:11.941Z,250
2017-11-14T08:44:52.471Z,250
2017-11-14T08:45:33.010Z,255
2017-11-14T08:46:13.518Z,260
2017-11-14T08:46:54.062Z,270
2017-11-14T08:47:34.574Z,285
2017-11-14T08:48:15.103Z,310
2017-11-14T08:48:55.621Z,355
2017-11-14T08:49:36.149Z,360
2017-11-14T08:50:16.682Z,360
2017-11-14T08:50:57.194Z,360
2017-11-14T08:51:37.727Z,390
2017-11-14T08:52:18.258Z,500
2017-11-14T08:52:58.789Z,400
2017-11-14T08:53:39.346Z,360
2017-11-14T08:54:19.871Z,305
2017-11-14T08:55:00.398Z,300
2017-11-14T08:55:40.926Z,295
2017-11-14T08:56:21.447Z,300
2017-11-14T08:57:01.970Z,305
2017-11-14T08:57:42.508Z,300
2017-11-14T08:58:23.032Z,290
2017-11-14T08:59:03.557Z,300
2017-11-14T08:59:44.093Z,320
2017-11-14T09:00:24.628Z,325
2017-11-14T09:01:05.134Z,360
2017-11-14T09:01:45.664Z,445
2017-11-14T09:02:26.193Z,510
2017-11-14T09:03:06.730Z,530
2017-11-14T09:03:47.251Z,520
2017-11-14T09:04:27.785Z,505
2017-11-14T09:05:08.308Z,570
2017-11-14T09:05:48.842Z,525
2017-11-14T09:06:29.373Z,680
2017-11-14T09:07:09.898Z,765
2017-11-14T09:07:50.424Z,665
2017-11-14T09:08:30.959Z,550
2017-11-14T09:09:11.482Z,560
2017-11-14T09:09:52.017Z,515
2017-11-14T09:10:32.533Z,445
2017-11-14T09:11:13.048Z,435
2017-11-14T09:11:53.577Z,420
2017-11-14T09:12:34.106Z,430
2017-11-14T09:13:14.629Z,475
2017-11-14T09:13:55.140Z,625
2017-11-14T09:14:35.684Z,735
2017-11-14T09:15:16.214Z,755
2017-11-14T09:15:56.719Z,770
2017-11-14T09:16:37.240Z,815
2017-11-14T09:17:17.785Z,820
2017-11-14T09:17:58.318Z,865
2017-11-14T09:18:38.837Z,880
2017-11-14T09:19:19.355Z,870
2017-11-14T09:19:59.875Z,875
2017-11-14T09:20:40.416Z,880
2017-11-14T09:21:20.948Z,875
2017-11-14T09:22:01.457Z,795
2017-11-14T09:22:41.991Z,640
2017-11-14T09:23:22.523Z,655
2017-11-14T09:24:03.045Z,620
2017-11-14T09:24:43.566Z,620
2017-11-14T09:25:24.093Z,565
2017-11-14T09:26:04.629Z,295
2017-11-14T09:26:45.148Z,265
2017-11-14T09:27:25.678Z,260
2017-11-14T09:28:06.205Z,225
2017-11-14T09:28:46.742Z,190
2017-11-14T09:29:27.273Z,185
2017-11-14T09:30:07.807Z,180
2017-11-14T09:30:48.333Z,170
2017-11-14T09:31:28.856Z,165
2017-11-14T09:32:09.385Z,160
2017-11-14T09:32:49.923Z,155
2017-11-14T09:33:30.452Z,150
2017-11-14T09:34:10.966Z,160
2017-11-14T09:34:51.502Z,165
2017-11-14T09:35:32.032Z,185
2017-11-14T09:36:12.580Z,205
2017-11-14T09:36:53.093Z,230
2017-11-14T09:37:33.640Z,255
2017-11-14T09:38:14.153Z,300
2017-11-14T09:38:54.680Z,330
2017-11-14T09:39:35.201Z,340
2017-11-14T09:40:15.724Z,335
2017-11-14T09:40:56.237Z,290
2017-11-14T09:41:36.764Z,285
2017-11-14T09:42:17.319Z,265
2017-11-14T09:42:57.829Z,245
2017-11-14T09:43:38.340Z,300
2017-11-14T09:44:18.869Z,285
2017-11-14T09:44:59.389Z,270
2017-11-14T09:45:39.906Z,265
2017-11-14T09:46:20.430Z,300
2017-11-14T09:47:00.969Z,355
2017-11-14T09:47:41.492Z,280
2017-11-14T09:48:22.024Z,280
2017-11-14T09:49:02.549Z,320
2017-11-14T09:49:43.074Z,285